Time;durP1;ratioP1;P1;durP2;ratioP2;P2;SDS_P1;SDS_P2;PMS_P1;PMS_P2;Temp;Humidity;BMP_temperature;BMP_pressure;BME280_temperature;BME280_humidity;BME280_pressure;Samples;Min_cycle;Max_cycle;Signal;HPM_P1;HPM_P2
2021/11/29 00:01:58;;;;;;;14.80;6.28;;;;;;;10.41;81.54;97737.81;4895507;29;20028;-38
2021/11/29 00:04:24;;;;;;;10.93;5.90;;;;;;;10.36;81.83;97719.97;4895446;29;20083;-38
2021/11/29 00:06:49;;;;;;;14.95;6.07;;;;;;;10.33;82.71;97715.16;4895349;29;20028;-38
2021/11/29 00:09:15;;;;;;;10.57;5.57;;;;;;;10.18;82.98;97705.97;4895347;29;20501;-39
2021/11/29 00:11:41;;;;;;;11.65;5.95;;;;;;;10.14;83.99;97759.84;4894496;29;20111;-39
2021/11/29 00:14:06;;;;;;;9.85;6.32;;;;;;;10.12;83.96;97719.44;4895240;29;20378;-39
2021/11/29 00:16:32;;;;;;;9.60;5.45;;;;;;;10.35;84.01;97740.44;4895171;29;20028;-39
2021/11/29 00:18:57;;;;;;;12.18;5.70;;;;;;;10.72;82.58;97721.09;4895129;29;20021;-38
2021/11/29 00:21:23;;;;;;;14.00;5.80;;;;;;;10.93;81.13;97738.03;4895230;29;20044;-39
2021/11/29 00:23:48;;;;;;;11.45;4.93;;;;;;;11.07;80.44;97717.09;4876398;29;20029;-38
2021/11/29 00:26:15;;;;;;;13.35;6.32;;;;;;;11.34;78.84;97722.31;4876171;29;20035;-39
2021/11/29 00:28:42;;;;;;;11.32;5.57;;;;;;;11.39;78.95;97742.06;4876532;29;20126;-38
2021/11/29 00:31:08;;;;;;;11.18;6.10;;;;;;;11.00;79.49;97713.06;4875588;29;20104;-39
2021/11/29 00:33:33;;;;;;;12.40;5.32;;;;;;;10.76;80.90;97705.44;4876502;29;20132;-38
2021/11/29 00:35:59;;;;;;;8.15;5.03;;;;;;;11.10;80.32;97708.59;4876312;29;20105;-39
2021/11/29 00:38:24;;;;;;;10.25;4.95;;;;;;;10.84;80.81;97701.50;4876607;29;20035;-39
2021/11/29 00:40:50;;;;;;;11.32;5.20;;;;;;;10.99;80.46;97690.16;4876607;29;20025;-39
2021/11/29 00:43:15;;;;;;;10.63;5.25;;;;;;;10.78;81.26;97690.03;4876495;29;20031;-39
2021/11/29 00:45:41;;;;;;;9.55;5.70;;;;;;;11.06;79.23;97686.22;4876231;29;20401;-38
2021/11/29 00:48:06;;;;;;;14.80;5.55;;;;;;;10.66;81.18;97678.72;4876448;29;20097;-38
2021/11/29 00:50:37;;;;;;;9.07;5.28;;;;;;;10.84;80.91;97696.19;4876343;29;20493;-39
2021/11/29 00:53:02;;;;;;;15.73;6.03;;;;;;;10.61;81.49;97692.81;4876140;29;20419;-39
2021/11/29 00:55:28;;;;;;;12.75;6.00;;;;;;;10.43;82.12;97707.25;4876189;29;20025;-39
2021/11/29 00:57:54;;;;;;;11.77;6.63;;;;;;;10.43;81.97;97688.66;4876409;29;20037;-38
2021/11/29 01:00:20;;;;;;;15.85;7.28;;;;;;;10.44;81.13;97689.47;4875977;29;20412;-38
2021/11/29 01:02:45;;;;;;;13.02;7.10;;;;;;;10.31;80.90;97701.31;4876292;29;20029;-38
2021/11/29 01:05:11;;;;;;;14.07;7.22;;;;;;;10.05;81.93;97685.09;4875977;29;20029;-38
2021/11/29 01:07:36;;;;;;;15.18;8.27;;;;;;;10.10;81.07;97677.16;4876038;29;20033;-40
2021/11/29 01:10:04;;;;;;;13.57;7.47;;;;;;;9.99;82.31;97678.09;4859485;29;20036;-38
2021/11/29 01:12:29;;;;;;;12.55;7.68;;;;;;;9.98;82.23;97679.97;4875968;29;20405;-39
2021/11/29 01:14:55;;;;;;;15.50;8.18;;;;;;;9.88;82.08;97655.94;4875908;29;20029;-38
2021/11/29 01:17:20;;;;;;;18.70;8.75;;;;;;;9.92;82.56;97650.94;4875906;29;20021;-38
2021/11/29 01:19:46;;;;;;;17.10;8.55;;;;;;;9.69;83.16;97652.81;4875717;29;20490;-38
2021/11/29 01:22:11;;;;;;;15.68;8.45;;;;;;;9.70;82.33;97603.94;4881935;29;20056;-39
2021/11/29 01:24:37;;;;;;;15.38;8.50;;;;;;;9.72;82.65;97604.50;4894385;29;20486;-38
2021/11/29 01:27:02;;;;;;;17.95;8.20;;;;;;;9.63;84.34;97613.16;4894512;29;20107;-38
2021/11/29 01:29:28;;;;;;;15.98;7.50;;;;;;;9.94;82.62;97603.66;4894507;29;20667;-38
2021/11/29 01:31:53;;;;;;;15.95;8.90;;;;;;;9.99;81.91;97627.59;4894620;29;20481;-38
2021/11/29 01:34:19;;;;;;;14.52;8.38;;;;;;;10.11;80.80;97654.84;4894184;29;20143;-38
2021/11/29 01:36:44;;;;;;;14.32;8.35;;;;;;;9.78;82.15;97642.53;4894613;29;20028;-39
2021/11/29 01:39:10;;;;;;;14.95;7.70;;;;;;;9.49;83.42;97604.78;4894529;29;20501;-38
2021/11/29 01:41:35;;;;;;;13.43;7.88;;;;;;;9.71;83.26;97597.59;4894413;29;20033;-38
2021/11/29 01:44:01;;;;;;;15.68;8.68;;;;;;;9.68;82.93;97592.78;4897365;29;20029;-39
2021/11/29 01:46:26;;;;;;;15.23;8.32;;;;;;;9.43;83.71;97597.81;4897479;29;20101;-39
2021/11/29 01:48:52;;;;;;;20.15;10.05;;;;;;;9.22;84.51;97552.44;4897885;29;20028;-39
2021/11/29 01:51:17;;;;;;;17.48;9.55;;;;;;;9.57;82.86;97572.47;4897737;29;20537;-38
2021/11/29 01:53:43;;;;;;;14.90;8.77;;;;;;;9.51;81.13;97584.09;4897556;29;20031;-38
2021/11/29 01:56:08;;;;;;;14.43;8.70;;;;;;;9.32;82.82;97563.16;4897589;29;20035;-38
2021/11/29 01:58:36;;;;;;;17.35;9.07;;;;;;;9.11;84.67;97564.00;4880827;29;20029;-39
2021/11/29 02:01:08;;;;;;;21.23;10.68;;;;;;;9.73;83.87;97562.81;4880778;29;20051;-39
2021/11/29 02:03:34;;;;;;;19.02;10.45;;;;;;;9.93;82.07;97554.22;4897593;29;20032;-39
2021/11/29 02:06:00;;;;;;;17.77;9.13;;;;;;;9.57;83.01;97548.56;4897431;29;20032;-39
2021/11/29 02:08:25;;;;;;;16.70;9.20;;;;;;;9.36;83.51;97537.72;4897293;29;20454;-39
2021/11/29 02:10:51;;;;;;;19.25;8.93;;;;;;;9.24;83.93;97554.88;4897491;29;20478;-38
2021/11/29 02:13:17;;;;;;;18.20;8.95;;;;;;;9.09;84.27;97563.44;4897515;29;20075;-39
2021/11/29 02:15:43;;;;;;;21.13;10.60;;;;;;;9.14;85.05;97560.84;4897608;29;20036;-39
2021/11/29 02:18:08;;;;;;;17.42;9.90;;;;;;;9.79;84.22;97569.78;4880296;29;20071;-39
2021/11/29 02:20:34;;;;;;;20.90;9.90;;;;;;;9.39;84.10;97553.19;4896929;29;20024;-38
2021/11/29 02:23:00;;;;;;;18.65;10.13;;;;;;;9.50;84.00;97540.00;4896952;29;20469;-39
2021/11/29 02:25:26;;;;;;;18.42;10.63;;;;;;;9.54;83.77;97543.78;4897076;29;20040;-39
2021/11/29 02:27:52;;;;;;;16.77;9.50;;;;;;;9.45;83.51;97530.13;4880162;29;20048;-39
2021/11/29 02:30:19;;;;;;;17.20;9.77;;;;;;;9.41;85.09;97522.94;4897043;29;20052;-49
2021/11/29 02:32:44;;;;;;;19.80;9.68;;;;;;;10.15;81.44;97527.56;4897008;29;20040;-48
2021/11/29 02:35:10;;;;;;;17.30;9.98;;;;;;;9.97;82.16;97521.56;4896963;29;20096;-49
2021/11/29 02:37:35;;;;;;;17.48;9.45;;;;;;;9.79;82.66;97508.69;4896872;29;20024;-48
2021/11/29 02:40:01;;;;;;;18.05;9.25;;;;;;;9.40;84.00;97487.59;4897001;29;20092;-47
2021/11/29 02:42:26;;;;;;;19.88;9.63;;;;;;;9.71;82.57;97493.19;4896786;29;20510;-48
2021/11/29 02:44:52;;;;;;;19.10;10.10;;;;;;;9.57;84.18;97479.53;4896601;29;20052;-48
2021/11/29 02:47:17;;;;;;;23.42;11.98;;;;;;;10.35;81.04;97479.09;4879942;29;20473;-48
2021/11/29 02:49:43;;;;;;;18.63;10.27;;;;;;;10.00;82.29;97483.09;4896559;29;20084;-47
2021/11/29 02:52:10;;;;;;;19.10;10.05;;;;;;;9.73;81.78;97486.59;4896889;29;20092;-48
2021/11/29 02:54:37;;;;;;;20.35;10.25;;;;;;;9.45;83.51;97492.19;4879016;29;20099;-48
2021/11/29 02:57:07;;;;;;;19.33;10.02;;;;;;;9.34;84.32;97492.06;4896499;29;20031;-50
2021/11/29 02:59:34;;;;;;;17.63;9.82;;;;;;;9.29;84.12;97486.72;4896432;29;20354;-50
2021/11/29 03:02:01;;;;;;;20.98;10.10;;;;;;;9.73;84.52;97477.84;4896334;29;20060;-48
2021/11/29 03:04:28;;;;;;;19.75;9.73;;;;;;;9.97;83.04;97468.44;4896391;29;20032;-48
2021/11/29 03:06:53;;;;;;;16.13;9.18;;;;;;;9.64;83.71;97463.41;4896266;29;20028;-51
2021/11/29 03:09:19;;;;;;;17.80;9.60;;;;;;;9.34;83.34;97446.13;4896209;29;20059;-48
2021/11/29 03:11:44;;;;;;;17.77;9.93;;;;;;;9.13;84.70;97459.19;4879753;29;20073;-50
2021/11/29 03:14:10;;;;;;;19.63;9.82;;;;;;;9.03;86.51;97458.31;4896332;29;20033;-49
2021/11/29 03:16:35;;;;;;;18.75;10.55;;;;;;;9.55;85.15;97457.75;4879375;29;20411;-49
2021/11/29 03:19:01;;;;;;;20.85;11.45;;;;;;;10.39;83.16;97460.75;4896248;29;20032;-49
2021/11/29 03:21:27;;;;;;;17.50;10.13;;;;;;;9.68;82.17;97457.31;4896127;29;20029;-48
2021/11/29 03:23:54;;;;;;;17.50;9.93;;;;;;;9.44;84.25;97461.34;4896238;29;20092;-50
2021/11/29 03:26:20;;;;;;;15.88;9.52;;;;;;;9.26;85.03;97428.81;4895914;29;20025;-49
2021/11/29 03:28:47;;;;;;;20.77;10.20;;;;;;;9.23;84.97;97429.31;4896087;29;20040;-51
2021/11/29 03:31:13;;;;;;;15.65;8.90;;;;;;;9.20;84.90;97430.63;4895923;29;20032;-49
2021/11/29 03:33:40;;;;;;;20.60;9.48;;;;;;;9.72;84.61;97442.47;4895705;29;20072;-47
2021/11/29 03:36:06;;;;;;;16.02;9.35;;;;;;;9.58;85.03;97447.44;4896348;29;20028;-47
2021/11/29 03:38:31;;;;;;;15.68;8.40;;;;;;;9.38;85.31;97453.34;4896001;29;20029;-51
2021/11/29 03:40:57;;;;;;;15.13;8.98;;;;;;;9.22;83.54;97432.25;4895969;29;20028;-50
2021/11/29 03:43:23;;;;;;;18.00;8.82;;;;;;;9.29;85.07;97457.53;4895760;29;20024;-48
2021/11/29 03:45:48;;;;;;;19.40;9.73;;;;;;;9.36;84.84;97425.47;4895574;29;20421;-51
2021/11/29 03:48:14;;;;;;;20.48;9.00;;;;;;;9.75;85.00;97447.31;4895487;29;20040;-48
2021/11/29 03:50:39;;;;;;;16.10;9.27;;;;;;;10.12;82.43;97443.81;4895792;29;20413;-50
2021/11/29 03:53:05;;;;;;;18.02;9.15;;;;;;;9.70;83.51;97436.63;4895754;29;20493;-48
2021/11/29 03:55:30;;;;;;;17.02;8.20;;;;;;;9.47;82.87;97429.81;4895534;29;20474;-51
2021/11/29 03:57:56;;;;;;;13.95;8.27;;;;;;;9.32;83.19;97434.97;4895712;29;20026;-48
2021/11/29 04:00:21;;;;;;;14.30;8.35;;;;;;;9.18;84.89;97423.97;4895568;29;20032;-49
2021/11/29 04:02:47;;;;;;;23.52;9.70;;;;;;;9.47;86.03;97448.38;4895278;29;20051;-48
2021/11/29 04:05:12;;;;;;;20.67;10.50;;;;;;;9.71;86.64;97413.50;4895175;29;20032;-49
2021/11/29 04:07:38;;;;;;;18.33;9.65;;;;;;;9.65;83.73;97433.91;4895266;29;20036;-48
2021/11/29 04:10:04;;;;;;;16.90;9.25;;;;;;;9.53;82.02;97430.66;4895175;29;20033;-48
2021/11/29 04:12:29;;;;;;;14.95;9.60;;;;;;;9.25;83.45;97394.56;4895188;29;20028;-48
2021/11/29 04:14:55;;;;;;;17.38;9.70;;;;;;;9.06;85.56;97386.94;4894884;29;20035;-49
2021/11/29 04:17:20;;;;;;;22.52;10.63;;;;;;;9.02;86.37;97379.75;4895179;29;20036;-48
2021/11/29 04:19:46;;;;;;;18.65;11.15;;;;;;;9.72;84.16;97385.91;4895412;29;20410;-48
2021/11/29 04:22:13;;;;;;;17.80;10.15;;;;;;;9.38;84.48;97386.97;4895168;29;20028;-49
2021/11/29 04:24:40;;;;;;;18.23;10.68;;;;;;;9.38;84.11;97384.31;4895047;29;20043;-48
2021/11/29 04:27:06;;;;;;;21.73;10.90;;;;;;;9.21;84.74;97381.00;4894933;29;20028;-48
2021/11/29 04:29:34;;;;;;;21.70;11.40;;;;;;;9.18;83.71;97371.69;4894943;29;20504;-48
2021/11/29 04:32:00;;;;;;;21.80;12.00;;;;;;;9.17;83.66;97383.34;4894744;29;20032;-48
2021/11/29 04:34:25;;;;;;;21.15;12.25;;;;;;;9.61;83.16;97385.03;4894967;29;20111;-48
2021/11/29 04:36:51;;;;;;;22.25;12.75;;;;;;;9.64;82.03;97375.78;4894543;29;20036;-49
2021/11/29 04:39:16;;;;;;;19.45;11.68;;;;;;;9.23;82.10;97375.44;4894585;29;20033;-48
2021/11/29 04:41:43;;;;;;;25.05;12.50;;;;;;;9.14;83.17;97364.50;4894354;29;20032;-47
2021/11/29 04:44:08;;;;;;;23.33;12.05;;;;;;;9.06;83.29;97381.66;4894374;29;20142;-48
2021/11/29 04:46:35;;;;;;;25.23;13.38;;;;;;;9.32;84.24;97390.66;4894219;29;20033;-48
2021/11/29 04:49:00;;;;;;;26.25;14.70;;;;;;;9.62;83.19;97381.34;4894559;29;20048;-50
2021/11/29 04:51:26;;;;;;;24.65;13.30;;;;;;;9.34;82.38;97375.28;4894358;29;20505;-48
2021/11/29 04:53:51;;;;;;;22.88;12.90;;;;;;;9.03;83.12;97373.41;4894432;29;20040;-51
2021/11/29 04:56:17;;;;;;;25.90;13.95;;;;;;;8.97;84.18;97373.34;4877389;29;20037;-51
2021/11/29 04:58:43;;;;;;;25.85;14.02;;;;;;;9.18;83.90;97355.78;4894139;29;20036;-49
2021/11/29 05:01:08;;;;;;;29.55;15.57;;;;;;;9.17;85.09;97356.03;4893923;29;20342;-50
2021/11/29 05:03:34;;;;;;;26.77;14.75;;;;;;;9.82;83.43;97375.34;4894088;29;20028;-50
2021/11/29 05:05:59;;;;;;;30.63;14.00;;;;;;;9.47;82.09;97397.94;4893967;29;20037;-49
2021/11/29 05:08:25;;;;;;;25.83;13.50;;;;;;;9.33;82.07;97379.00;4893909;29;20052;-49
2021/11/29 05:10:50;;;;;;;23.23;13.38;;;;;;;8.94;84.92;97383.66;4894095;29;20562;-50
2021/11/29 05:13:18;;;;;;;24.67;12.70;;;;;;;8.83;84.71;97364.19;4893844;29;20035;-48
2021/11/29 05:15:43;;;;;;;25.25;14.02;;;;;;;9.36;85.50;97399.69;4893563;29;20044;-48
2021/11/29 05:18:09;;;;;;;22.08;12.93;;;;;;;9.30;83.81;97384.78;4894947;29;20039;-49
2021/11/29 05:20:34;;;;;;;25.35;14.10;;;;;;;9.20;85.77;97400.63;4897143;29;20501;-49
2021/11/29 05:23:00;;;;;;;22.88;13.30;;;;;;;9.46;86.14;97409.63;4878708;29;20024;-49
2021/11/29 05:25:26;;;;;;;24.80;13.40;;;;;;;9.26;85.02;97402.28;4886453;29;20048;-51
2021/11/29 05:27:51;;;;;;;27.15;13.25;;;;;;;9.29;84.76;97430.97;4878447;29;20025;-50
2021/11/29 05:30:17;;;;;;;27.60;14.45;;;;;;;9.22;85.31;97432.25;4893247;29;20040;-49
2021/11/29 05:32:42;;;;;;;24.25;13.52;;;;;;;8.95;87.46;97431.16;4878428;29;20164;-49
2021/11/29 05:35:08;;;;;;;24.27;13.20;;;;;;;9.22;87.22;97434.88;4878049;29;20057;-52
2021/11/29 05:37:33;;;;;;;20.25;12.35;;;;;;;9.13;87.05;97453.09;4879846;29;20033;-49
2021/11/29 05:39:59;;;;;;;23.05;12.02;;;;;;;9.13;86.72;97431.88;4884030;29;20025;-49
2021/11/29 05:42:24;;;;;;;16.77;10.63;;;;;;;9.15;86.27;97454.44;4895795;29;20037;-49
2021/11/29 05:44:50;;;;;;;16.90;10.80;;;;;;;9.20;86.27;97461.66;4897324;29;20040;-48
2021/11/29 05:47:19;;;;;;;20.05;11.38;;;;;;;9.10;87.50;97459.72;4897232;29;20032;-49
2021/11/29 05:49:45;;;;;;;22.58;10.00;;;;;;;9.43;86.73;97468.53;4896642;29;20039;-50
2021/11/29 05:52:10;;;;;;;17.13;9.65;;;;;;;9.46;86.31;97457.41;4895793;29;20024;-51
2021/11/29 05:54:36;;;;;;;16.88;8.82;;;;;;;9.71;85.86;97464.81;4891234;29;20036;-50
2021/11/29 05:57:01;;;;;;;18.73;8.82;;;;;;;9.94;85.31;97495.53;4890476;29;20017;-51
2021/11/29 05:59:27;;;;;;;13.88;7.72;;;;;;;9.66;85.99;97487.84;4894312;29;20031;-48
2021/11/29 06:01:52;;;;;;;16.08;8.38;;;;;;;9.73;86.81;97477.84;4883094;29;20021;-39
2021/11/29 06:04:18;;;;;;;14.60;7.78;;;;;;;9.94;85.60;97500.06;4894945;29;20025;-40
2021/11/29 06:06:43;;;;;;;16.45;7.72;;;;;;;10.14;84.97;97499.38;4895136;29;20025;-39
2021/11/29 06:09:09;;;;;;;15.10;8.52;;;;;;;10.29;84.89;97502.16;4894674;29;20029;-38
2021/11/29 06:11:34;;;;;;;12.85;7.82;;;;;;;10.44;83.89;97516.63;4892917;29;20041;-39
2021/11/29 06:14:00;;;;;;;13.50;7.70;;;;;;;10.73;83.35;97509.06;4877653;29;20060;-39
2021/11/29 06:16:25;;;;;;;14.18;8.73;;;;;;;10.95;82.47;97512.38;4877758;29;20048;-38
2021/11/29 06:18:51;;;;;;;18.48;10.02;;;;;;;10.96;82.72;97532.59;4878144;29;20261;-40
2021/11/29 06:21:16;;;;;;;15.32;7.90;;;;;;;11.06;81.42;97523.03;4878165;29;20096;-39
2021/11/29 06:23:42;;;;;;;12.75;7.00;;;;;;;11.05;82.50;97540.09;4895714;29;20043;-39
2021/11/29 06:26:07;;;;;;;10.95;6.80;;;;;;;11.00;82.67;97521.44;4896106;29;20146;-39
2021/11/29 06:28:33;;;;;;;16.38;8.18;;;;;;;11.00;82.11;97511.56;4896107;29;20028;-39
2021/11/29 06:30:58;;;;;;;14.25;7.32;;;;;;;11.00;83.50;97522.22;4896171;29;20520;-38
2021/11/29 06:33:24;;;;;;;15.75;7.00;;;;;;;10.80;84.32;97500.88;4896218;29;20052;-40
2021/11/29 06:35:50;;;;;;;12.13;6.53;;;;;;;10.91;83.58;97491.88;4896277;29;20060;-40
2021/11/29 06:38:16;;;;;;;12.98;7.40;;;;;;;11.15;83.00;97508.19;4895981;29;20017;-40
2021/11/29 06:40:47;;;;;;;10.98;6.47;;;;;;;11.24;82.69;97517.25;4858513;29;20191;-40
2021/11/29 06:43:14;;;;;;;13.50;6.97;;;;;;;11.07;83.51;97496.19;4885927;29;20025;-39
2021/11/29 06:45:39;;;;;;;13.20;6.88;;;;;;;11.29;83.25;97501.31;4878092;29;20025;-39
2021/11/29 06:48:05;;;;;;;11.88;7.00;;;;;;;11.68;81.09;97508.03;4876424;29;20036;-39
2021/11/29 06:50:30;;;;;;;12.43;6.88;;;;;;;11.83;81.75;97515.25;4877072;29;20033;-38
2021/11/29 06:52:56;;;;;;;15.20;7.75;;;;;;;12.09;81.04;97519.53;4875829;29;20032;-40
2021/11/29 06:55:21;;;;;;;14.45;7.53;;;;;;;12.66;78.67;97535.44;4876876;29;20025;-39
2021/11/29 06:57:47;;;;;;;13.57;7.35;;;;;;;13.22;76.16;97535.28;4877278;29;20029;-39
2021/11/29 07:00:16;;;;;;;11.05;6.75;;;;;;;13.34;75.87;97537.66;4877233;29;20509;-40
2021/11/29 07:02:43;;;;;;;12.53;7.53;;;;;;;13.65;74.71;97551.66;4877172;29;20036;-40
2021/11/29 07:05:09;;;;;;;13.00;6.80;;;;;;;14.11;73.18;97531.81;4877413;29;20025;-40
2021/11/29 07:07:35;;;;;;;10.23;6.30;;;;;;;14.22;71.38;97525.31;4877039;29;20040;-40
2021/11/29 07:10:01;;;;;;;14.00;8.30;;;;;;;14.17;72.18;97535.25;4877498;29;20021;-39
2021/11/29 07:12:26;;;;;;;14.32;7.15;;;;;;;14.45;71.02;97521.06;4876730;29;20112;-38
2021/11/29 07:14:52;;;;;;;10.07;5.30;;;;;;;14.36;70.72;97525.44;4860313;29;20056;-39
2021/11/29 07:17:18;;;;;;;14.13;5.22;;;;;;;14.49;70.54;97558.78;4875091;29;20675;-39
2021/11/29 07:19:44;;;;;;;14.55;5.60;;;;;;;14.52;70.56;97544.03;4876287;29;20045;-40
2021/11/29 07:22:09;;;;;;;10.32;5.68;;;;;;;14.43;70.49;97525.91;4882685;29;20036;-40
2021/11/29 07:24:35;;;;;;;9.50;5.50;;;;;;;14.54;69.72;97544.53;4895255;29;20027;-39
2021/11/29 07:27:00;;;;;;;10.90;5.47;;;;;;;14.61;70.17;97553.06;4895041;29;20519;-38
2021/11/29 07:29:26;;;;;;;10.07;5.93;;;;;;;14.86;68.79;97547.44;4895102;29;20545;-39
2021/11/29 07:31:52;;;;;;;11.40;5.50;;;;;;;14.92;68.40;97542.03;4895412;29;20116;-38
2021/11/29 07:34:17;;;;;;;14.15;5.60;;;;;;;14.98;68.37;97531.00;4894737;29;20140;-39
2021/11/29 07:36:43;;;;;;;11.15;5.57;;;;;;;15.24;67.96;97533.34;4894953;29;20017;-40
2021/11/29 07:39:10;;;;;;;9.80;5.30;;;;;;;15.53;67.42;97535.13;4894536;29;20380;-39
2021/11/29 07:41:36;;;;;;;13.55;5.28;;;;;;;15.36;67.88;97538.28;4894006;29;20029;-38
2021/11/29 07:44:01;;;;;;;13.70;5.28;;;;;;;15.22;68.85;97557.75;4894743;29;20391;-38
2021/11/29 07:46:27;;;;;;;12.52;5.47;;;;;;;15.42;67.85;97569.28;4894728;29;20100;-40
2021/11/29 07:48:52;;;;;;;14.55;5.50;;;;;;;15.49;68.36;97552.84;4894854;29;20040;-40
2021/11/29 07:51:18;;;;;;;11.00;5.40;;;;;;;15.80;67.85;97553.25;4877859;29;20378;-41
2021/11/29 07:53:43;;;;;;;9.18;5.03;;;;;;;16.14;66.00;97569.09;4894697;29;20409;-38
2021/11/29 07:56:09;;;;;;;10.20;4.57;;;;;;;16.32;65.11;97531.81;4894842;29;20099;-40
2021/11/29 07:58:34;;;;;;;13.45;6.22;;;;;;;16.50;64.53;97555.09;4895493;29;20413;-41
2021/11/29 08:01:01;;;;;;;11.07;6.07;;;;;;;16.77;64.28;97575.03;4894947;29;20379;-40
2021/11/29 08:03:26;;;;;;;12.07;5.43;;;;;;;16.74;64.29;97587.16;4895318;29;20497;-38
2021/11/29 08:05:52;;;;;;;9.25;4.75;;;;;;;16.67;65.24;97585.97;4895162;29;20101;-38
2021/11/29 08:08:17;;;;;;;9.50;4.15;;;;;;;16.70;64.37;97566.56;4894675;29;20036;-39
2021/11/29 08:10:43;;;;;;;9.95;4.80;;;;;;;16.49;64.41;97541.97;4883632;29;20427;-40
2021/11/29 08:13:09;;;;;;;6.53;4.28;;;;;;;16.30;65.76;97593.03;4876302;29;20033;-37
2021/11/29 08:15:37;;;;;;;9.77;4.82;;;;;;;16.39;65.95;97588.56;4859301;29;20029;-38
2021/11/29 08:18:04;;;;;;;8.60;4.85;;;;;;;16.11;66.23;97601.88;4876613;29;20021;-39
2021/11/29 08:20:30;;;;;;;11.60;5.20;;;;;;;15.89;67.62;97607.84;4877173;29;20134;-43
2021/11/29 08:22:55;;;;;;;10.40;5.30;;;;;;;15.78;67.51;97601.00;4888485;29;20679;-39
2021/11/29 08:25:21;;;;;;;11.73;5.57;;;;;;;15.77;68.13;97592.19;4894949;29;20061;-39
2021/11/29 08:27:46;;;;;;;10.60;4.38;;;;;;;15.75;67.81;97590.88;4894952;29;20024;-41
2021/11/29 08:30:13;;;;;;;9.65;5.22;;;;;;;15.51;68.73;97599.72;4894875;29;20107;-39
2021/11/29 08:32:41;;;;;;;13.65;5.38;;;;;;;15.60;68.60;97591.84;4894045;29;20063;-39
2021/11/29 08:35:07;;;;;;;10.57;4.32;;;;;;;15.53;67.97;97604.81;4894012;29;20158;-39
2021/11/29 08:37:32;;;;;;;9.05;4.47;;;;;;;15.28;69.04;97585.28;4894122;29;20115;-39
2021/11/29 08:39:58;;;;;;;8.88;4.57;;;;;;;15.44;69.13;97618.84;4894056;29;20032;-38
2021/11/29 08:42:24;;;;;;;8.88;5.00;;;;;;;15.24;69.79;97621.75;4895044;29;20179;-40
2021/11/29 08:44:49;;;;;;;8.27;4.40;;;;;;;15.05;70.22;97629.72;4894509;29;20025;-40
2021/11/29 08:47:15;;;;;;;7.25;4.30;;;;;;;15.02;70.95;97612.38;4894562;29;20031;-42
2021/11/29 08:49:43;;;;;;;11.32;5.05;;;;;;;15.20;70.79;97588.59;4877980;29;20029;-41
2021/11/29 08:52:09;;;;;;;11.52;4.85;;;;;;;15.68;69.95;97572.44;4894634;29;20028;-40
2021/11/29 08:54:34;;;;;;;11.98;4.20;;;;;;;15.89;68.60;97572.19;4898490;29;20035;-41
2021/11/29 08:57:00;;;;;;;9.25;4.03;;;;;;;15.87;68.76;97585.09;4881952;29;20028;-40
2021/11/29 08:59:25;;;;;;;8.07;3.90;;;;;;;16.06;67.63;97590.44;4898587;29;20533;-41
2021/11/29 09:01:51;;;;;;;9.23;4.25;;;;;;;16.16;67.48;97609.88;4897517;29;20031;-40
2021/11/29 09:04:17;;;;;;;9.32;4.55;;;;;;;16.22;67.37;97618.59;4898212;29;20021;-41
2021/11/29 09:06:43;;;;;;;10.60;4.53;;;;;;;16.21;66.52;97619.72;4898254;29;20103;-40
2021/11/29 09:09:10;;;;;;;11.32;4.18;;;;;;;16.16;67.47;97615.25;4898234;29;20087;-39
2021/11/29 09:11:36;;;;;;;7.25;3.70;;;;;;;16.15;68.74;97591.38;4897402;29;20033;-40
2021/11/29 09:14:02;;;;;;;8.15;4.20;;;;;;;16.65;68.57;97610.41;4897470;29;20021;-39
2021/11/29 09:16:27;;;;;;;6.78;4.00;;;;;;;16.47;67.46;97613.94;4897776;29;20025;-38
2021/11/29 09:18:53;;;;;;;8.55;4.60;;;;;;;16.40;68.09;97649.22;4897700;29;20129;-39
2021/11/29 09:21:19;;;;;;;10.75;4.68;;;;;;;16.23;68.98;97665.84;4897505;29;20032;-40
2021/11/29 09:23:46;;;;;;;9.82;4.65;;;;;;;15.77;72.55;97677.19;4897474;29;20636;-38
2021/11/29 09:26:12;;;;;;;9.32;2.92;;;;;;;15.70;67.56;97677.50;4898120;29;20151;-39
2021/11/29 09:28:38;;;;;;;5.80;2.58;;;;;;;15.78;66.23;97694.88;4897898;29;20080;-37
2021/11/29 09:31:04;;;;;;;5.72;2.90;;;;;;;15.48;70.84;97688.75;4897859;29;20025;-38
2021/11/29 09:33:29;;;;;;;9.63;3.17;;;;;;;15.43;71.36;97689.59;4897650;29;20052;-39
2021/11/29 09:35:56;;;;;;;7.93;3.03;;;;;;;15.81;69.12;97688.94;4898021;29;20470;-43
2021/11/29 09:38:21;;;;;;;5.05;2.78;;;;;;;15.65;68.98;97674.91;4898136;29;20108;-41
2021/11/29 09:40:47;;;;;;;6.82;2.65;;;;;;;15.43;69.53;97662.81;4897602;29;20024;-41
2021/11/29 09:43:14;;;;;;;6.05;2.63;;;;;;;15.27;71.19;97642.63;4897154;29;20437;-40
2021/11/29 09:45:41;;;;;;;6.93;2.20;;;;;;;15.81;67.58;97632.63;4897472;29;20025;-41
2021/11/29 09:48:10;;;;;;;6.80;2.88;;;;;;;14.98;65.25;97645.34;4897213;29;20021;-39
2021/11/29 09:50:40;;;;;;;3.88;2.00;;;;;;;14.58;62.88;97636.59;4896966;29;20088;-39
2021/11/29 09:53:05;;;;;;;5.40;1.90;;;;;;;14.78;60.87;97635.63;4897178;29;20032;-39
2021/11/29 09:55:31;;;;;;;6.00;1.83;;;;;;;14.64;57.91;97632.78;4897091;29;20063;-40
2021/11/29 09:57:57;;;;;;;5.85;1.95;;;;;;;14.16;57.85;97652.13;4896972;29;20024;-39
2021/11/29 10:00:29;;;;;;;4.88;2.25;;;;;;;14.06;57.11;97652.97;4896877;29;20036;-39
2021/11/29 10:02:55;;;;;;;5.30;2.53;;;;;;;14.37;56.80;97644.75;4896369;29;20032;-41
2021/11/29 10:05:21;;;;;;;5.05;1.90;;;;;;;14.32;56.14;97660.84;4896936;29;20021;-37
2021/11/29 10:07:48;;;;;;;3.97;2.10;;;;;;;14.12;55.59;97637.69;4896958;29;20031;-39
2021/11/29 10:10:24;;;;;;;4.15;1.88;;;;;;;14.36;54.80;97661.09;4889293;29;20032;-39
2021/11/29 10:12:56;;;;;;;4.13;2.00;;;;;;;15.06;53.38;97660.81;4877686;29;20489;-40
2021/11/29 10:15:27;;;;;;;2.45;1.48;;;;;;;15.21;50.00;97659.81;4877605;29;20033;-39
2021/11/29 10:18:12;;;;;;;2.03;0.80;;;;;;;15.20;49.98;97672.44;4878326;29;20044;-39
2021/11/29 10:20:52;;;;;;;2.47;1.10;;;;;;;16.03;46.80;97680.34;4877653;29;20073;-38
2021/11/29 10:23:28;;;;;;;;;;;;;;;16.04;45.71;97711.44;4892797;29;20032;-38
2021/11/29 10:25:54;;;;;;;2.50;1.13;;;;;;;15.63;46.56;97720.75;4896183;29;20284;-37
2021/11/29 10:28:22;;;;;;;4.03;1.10;;;;;;;15.60;48.60;97740.09;4895912;29;20029;-38
2021/11/29 10:31:22;;;;;;;1.77;1.00;;;;;;;15.48;51.16;97702.16;4896216;29;20039;-39
2021/11/29 10:34:10;;;;;;;1.40;1.00;;;;;;;14.61;53.42;97649.44;4895405;29;20518;-38
2021/11/29 10:36:38;;;;;;;5.28;1.05;;;;;;;14.59;54.31;97681.81;4895426;29;20043;-38
2021/11/29 10:39:35;;;;;;;5.00;1.00;;;;;;;15.00;50.16;97654.69;4896212;29;20028;-38
2021/11/29 10:42:05;;;;;;;2.42;1.20;;;;;;;14.70;51.51;97666.50;4877986;29;20383;-38
2021/11/29 10:44:35;;;;;;;1.92;1.00;;;;;;;14.72;51.59;97660.84;4896035;29;20043;-37
2021/11/29 10:47:04;;;;;;;3.45;1.13;;;;;;;15.25;50.62;97679.63;4879094;29;20024;-37
2021/11/29 10:49:32;;;;;;;2.95;1.80;;;;;;;15.56;50.64;97677.41;4879585;29;20138;-38
2021/11/29 10:51:59;;;;;;;2.58;1.42;;;;;;;15.48;51.82;97680.72;4895956;29;20430;-38
2021/11/29 10:54:27;;;;;;;1.98;1.40;;;;;;;15.56;50.02;97665.88;4896010;29;20056;-38
2021/11/29 10:56:55;;;;;;;2.53;1.48;;;;;;;16.22;47.90;97666.91;4896053;29;20031;-47
2021/11/29 10:59:21;;;;;;;2.20;1.33;;;;;;;16.40;46.61;97670.69;4895561;29;20051;-50
2021/11/29 11:01:58;;;;;;;2.15;1.38;;;;;;;16.35;45.05;97668.88;4895620;29;20035;-49
2021/11/29 11:04:25;;;;;;;2.47;1.10;;;;;;;16.83;44.75;97680.50;4895695;29;20024;-47
2021/11/29 11:07:04;;;;;;;1.33;0.75;;;;;;;17.26;43.47;97677.63;4895248;29;20039;-47
2021/11/29 11:09:35;;;;;;;1.35;0.90;;;;;;;16.80;45.56;97687.25;4895362;29;20130;-48
2021/11/29 11:12:07;;;;;;;0.95;0.70;;;;;;;16.58;46.81;97677.94;4878994;29;20024;-50
2021/11/29 11:14:33;;;;;;;1.25;0.82;;;;;;;16.94;46.90;97688.09;4894898;29;20017;-50
2021/11/29 11:17:03;;;;;;;1.77;1.10;;;;;;;16.88;48.58;97702.72;4894419;29;20398;-48
2021/11/29 11:19:35;;;;;;;1.60;1.30;;;;;;;16.92;49.09;97700.22;4895698;29;20032;-47
2021/11/29 11:22:27;;;;;;;2.08;1.38;;;;;;;16.93;50.18;97693.78;4894942;29;20102;-50
2021/11/29 11:24:55;;;;;;;1.88;1.42;;;;;;;17.45;50.13;97681.00;4870727;29;20040;-48
2021/11/29 11:27:21;;;;;;;4.35;1.38;;;;;;;17.00;50.56;97681.56;4894871;29;20072;-49